Station Historical Data
Daily Summary for February 25, 2017 Units:  English    Metric   Both
« Previous Day
Next Day »
Daily Weekly Monthly Yearly Custom
  High: Low: Average:
Temperature: 65.6 °F 28.7 °F 42.1 °F
Dew Point: 52.6 °F 20.9 °F 36.8 °F
Humidity: 92% 62% 81%
Wind Speed: 22.0mph 0.0mph 7.9mph
Wind Gust: 32.0mph - -
Wind- - WSW
Pressure: 29.84 in 29.44 in -
Precipitation: 0.00 in    
Historical Graphs
 
 
Tabular Data for February 25, 2017
Time Temperature Dew Point Pressure Wind Wind Speed Wind Gust Humidity Rainfall Rate (Hourly)
00:04 65.6 °F 52.2 °F 29.50 in SSE 7.0 mph 12.0 mph 62% 0.00 in
00:09 65.4 °F 52.0 °F 29.50 in South 6.0 mph 16.0 mph 62% 0.00 in
00:14 65.5 °F 52.1 °F 29.50 in SSW 3.0 mph 14.0 mph 62% 0.00 in
00:19 65.2 °F 51.8 °F 29.53 in WNW 6.0 mph 12.0 mph 62% 0.00 in
00:24 62.3 °F 49.5 °F 29.53 in West 6.0 mph 15.0 mph 63% 0.00 in
00:29 60.3 °F 48.9 °F 29.53 in WNW 6.0 mph 12.0 mph 66% 0.00 in
00:34 58.4 °F 48.3 °F 29.53 in West 4.0 mph 14.0 mph 69% 0.00 in
00:39 57.4 °F 47.3 °F 29.53 in NNW 4.0 mph 10.0 mph 69% 0.00 in
00:44 55.8 °F 46.5 °F 29.53 in WNW 5.0 mph 10.0 mph 71% 0.00 in
00:49 54.9 °F 46.4 °F 29.52 in WNW 3.0 mph 8.0 mph 73% 0.00 in
00:54 54.3 °F 46.2 °F 29.52 in WNW 2.0 mph 4.0 mph 74% 0.00 in
00:59 54.1 °F 46.0 °F 29.52 in NW 1.0 mph 4.0 mph 74% 0.00 in
01:04 53.9 °F 46.2 °F 29.52 in Calm     75% 0.00 in
01:09 53.8 °F 46.1 °F 29.51 in Calm     75% 0.00 in
01:14 53.8 °F 46.1 °F 29.51 in Calm     75% 0.00 in
01:19 53.6 °F 46.2 °F 29.51 in Calm     76% 0.00 in
01:24 53.4 °F 46.0 °F 29.51 in Calm     76% 0.00 in
01:29 53.2 °F 46.2 °F 29.51 in Calm     77% 0.00 in
01:34 53.0 °F 46.0 °F 29.51 in Calm     77% 0.00 in
01:39 53.1 °F 46.1 °F 29.50 in Calm     77% 0.00 in
01:44 53.1 °F 46.1 °F 29.50 in Calm   3.0 mph 77% 0.00 in
01:49 53.1 °F 46.1 °F 29.50 in SSE 1.0 mph 3.0 mph 77% 0.00 in
01:54 53.0 °F 46.3 °F 29.50 in SSE 1.0 mph 3.0 mph 78% 0.00 in
01:59 52.8 °F 46.1 °F 29.50 in South 1.0 mph 3.0 mph 78% 0.00 in
02:04 52.8 °F 46.5 °F 29.49 in Calm   2.0 mph 79% 0.00 in
02:09 52.9 °F 46.2 °F 29.49 in Calm   2.0 mph 78% 0.00 in
02:14 52.7 °F 46.4 °F 29.50 in Calm   1.0 mph 79% 0.00 in
02:19 52.5 °F 46.2 °F 29.50 in Calm   1.0 mph 79% 0.00 in
02:24 52.3 °F 46.3 °F 29.50 in Calm     80% 0.00 in
02:29 52.2 °F 46.2 °F 29.50 in WNW 2.0 mph 2.0 mph 80% 0.00 in
02:34 52.3 °F 46.3 °F 29.52 in West 3.0 mph 4.0 mph 80% 0.00 in
02:39 52.6 °F 46.6 °F 29.53 in West 3.0 mph 5.0 mph 80% 0.00 in
02:44 53.0 °F 46.7 °F 29.53 in West 2.0 mph 6.0 mph 79% 0.00 in
02:49 53.3 °F 47.0 °F 29.53 in WNW 3.0 mph 6.0 mph 79% 0.00 in
02:54 53.8 °F 47.1 °F 29.53 in WNW 3.0 mph 7.0 mph 78% 0.00 in
02:59 54.1 °F 47.4 °F 29.54 in West 4.0 mph 7.0 mph 78% 0.00 in
03:04 54.6 °F 47.9 °F 29.55 in West 4.0 mph 9.0 mph 78% 0.00 in
03:09 54.9 °F 48.2 °F 29.55 in West 5.0 mph 10.0 mph 78% 0.00 in
03:14 54.7 °F 48.0 °F 29.55 in WSW 5.0 mph 10.0 mph 78% 0.00 in
03:19 54.6 °F 48.6 °F 29.55 in WSW 5.0 mph 13.0 mph 80% 0.00 in
03:24 54.6 °F 49.5 °F 29.54 in WSW 8.0 mph 16.0 mph 83% 0.02 in
03:29 54.4 °F 49.7 °F 29.52 in SW 6.0 mph 11.0 mph 84% 0.02 in
03:34 54.0 °F 49.6 °F 29.52 in SSW 2.0 mph 8.0 mph 85% 0.02 in
03:39 53.5 °F 49.1 °F 29.52 in SSW 3.0 mph 6.0 mph 85% 0.02 in
03:44 53.0 °F 48.9 °F 29.52 in SSW 3.0 mph 5.0 mph 86% 0.03 in
03:49 52.4 °F 48.3 °F 29.52 in South 2.0 mph 7.0 mph 86% 0.03 in
03:54 52.0 °F 47.9 °F 29.52 in South 3.0 mph 7.0 mph 86% 0.03 in
03:59 51.8 °F 48.1 °F 29.52 in South 3.0 mph 5.0 mph 87% 0.03 in
04:04 51.5 °F 47.8 °F 29.51 in South 2.0 mph 5.0 mph 87% 0.03 in
04:09 51.5 °F 48.1 °F 29.51 in South 2.0 mph 4.0 mph 88% 0.03 in
04:14 51.6 °F 48.2 °F 29.51 in South 2.0 mph 4.0 mph 88% 0.03 in
04:19 51.7 °F 48.3 °F 29.52 in South 3.0 mph 4.0 mph 88% 0.03 in
04:24 51.6 °F 48.2 °F 29.52 in South 2.0 mph 4.0 mph 88% 0.02 in
04:29 51.6 °F 48.2 °F 29.52 in South 2.0 mph 4.0 mph 88% 0.03 in
04:34 51.8 °F 48.7 °F 29.51 in South 2.0 mph 4.0 mph 89% 0.03 in
04:39 52.1 °F 49.0 °F 29.51 in South 2.0 mph 5.0 mph 89% 0.04 in
04:44 52.4 °F 49.6 °F 29.51 in SSE 6.0 mph 7.0 mph 90% 0.03 in
04:49 52.8 °F 49.9 °F 29.50 in SSE 1.0 mph 6.0 mph 90% 0.03 in
04:54 53.1 °F 50.2 °F 29.49 in South 4.0 mph 5.0 mph 90% 0.03 in
04:59 53.5 °F 50.6 °F 29.49 in SSE 3.0 mph 6.0 mph 90% 0.03 in
05:04 53.8 °F 50.9 °F 29.49 in South 3.0 mph 7.0 mph 90% 0.04 in
05:09 54.1 °F 51.2 °F 29.50 in South 1.0 mph 5.0 mph 90% 0.04 in
05:14 54.2 °F 51.3 °F 29.49 in South 2.0 mph 5.0 mph 90% 0.04 in
05:19 54.4 °F 51.5 °F 29.48 in SSE 2.0 mph 5.0 mph 90% 0.04 in
05:24 54.6 °F 51.7 °F 29.48 in SSW 1.0 mph 5.0 mph 90% 0.04 in
05:29 54.7 °F 51.8 °F 29.48 in South 2.0 mph 5.0 mph 90% 0.03 in
05:34 54.9 °F 52.0 °F 29.48 in South 3.0 mph 6.0 mph 90% 0.03 in
05:39 54.9 °F 51.7 °F 29.48 in South 3.0 mph 6.0 mph 89% 0.03 in
05:44 54.9 °F 52.0 °F 29.48 in South 2.0 mph 5.0 mph 90% 0.04 in
05:49 55.0 °F 52.1 °F 29.48 in South 2.0 mph 6.0 mph 90% 0.04 in
05:54 55.1 °F 52.2 °F 29.47 in South 3.0 mph 6.0 mph 90% 0.05 in
05:59 55.2 °F 52.0 °F 29.47 in SSW 2.0 mph 4.0 mph 89% 0.05 in
06:04 55.3 °F 52.4 °F 29.46 in South 4.0 mph 8.0 mph 90% 0.04 in
06:09 55.5 °F 52.3 °F 29.46 in South 4.0 mph 8.0 mph 89% 0.05 in
06:14 55.5 °F 52.3 °F 29.46 in South 2.0 mph 10.0 mph 89% 0.07 in
06:19 55.6 °F 52.4 °F 29.46 in SSW 6.0 mph 7.0 mph 89% 0.08 in
06:24 55.7 °F 52.5 °F 29.46 in South 4.0 mph 10.0 mph 89% 0.09 in
06:29 55.7 °F 52.5 °F 29.45 in SSE 3.0 mph 9.0 mph 89% 0.09 in
06:34 55.7 °F 52.5 °F 29.45 in SSW 4.0 mph 7.0 mph 89% 0.09 in
06:39 55.6 °F 52.4 °F 29.45 in South 4.0 mph 7.0 mph 89% 0.09 in
06:44 55.5 °F 52.6 °F 29.44 in South 3.0 mph 6.0 mph 90% 0.08 in
06:49 55.5 °F 52.6 °F 29.44 in South 3.0 mph 8.0 mph 90% 0.09 in
06:54 55.4 °F 52.5 °F 29.46 in South 4.0 mph 8.0 mph 90% 0.09 in
06:59 53.8 °F 49.7 °F 29.48 in SW 8.0 mph 22.0 mph 86% 0.10 in
07:04 50.9 °F 46.6 °F 29.47 in WSW 12.0 mph 23.0 mph 85% 0.12 in
07:09 48.8 °F 44.8 °F 29.45 in West 4.0 mph 16.0 mph 86% 0.12 in
07:14 47.8 °F 44.4 °F 29.47 in WSW 6.0 mph 13.0 mph 88% 0.12 in
07:19 47.0 °F 43.9 °F 29.48 in WSW 9.0 mph 13.0 mph 89% 0.13 in
07:24 46.4 °F 43.3 °F 29.48 in WSW 7.0 mph 13.0 mph 89% 0.12 in
07:29 45.5 °F 42.4 °F 29.48 in SW 9.0 mph 15.0 mph 89% 0.12 in
07:34 44.5 °F 41.7 °F 29.49 in West 7.0 mph 19.0 mph 90% 0.12 in
07:39 43.8 °F 41.1 °F 29.49 in SW 8.0 mph 18.0 mph 90% 0.12 in
07:44 43.3 °F 40.6 °F 29.49 in SW 9.0 mph 18.0 mph 90% 0.13 in
07:49 43.0 °F 40.6 °F 29.49 in SW 8.0 mph 17.0 mph 91% 0.13 in
07:54 42.8 °F 40.4 °F 29.49 in SW 7.0 mph 13.0 mph 91% 0.14 in
07:59 42.7 °F 40.3 °F 29.51 in SW 8.0 mph 17.0 mph 91% 0.16 in
08:04 42.4 °F 40.0 °F 29.49 in SW 9.0 mph 17.0 mph 91% 0.17 in
08:09 42.2 °F 40.0 °F 29.49 in SW 8.0 mph 17.0 mph 92% 0.18 in
08:14 42.1 °F 39.9 °F 29.48 in SW 7.0 mph 12.0 mph 92% 0.18 in
08:19 42.2 °F 40.0 °F 29.50 in SW 7.0 mph 12.0 mph 92% 0.17 in
08:24 42.2 °F 40.0 °F 29.50 in SW 7.0 mph 16.0 mph 92% 0.17 in
08:29 42.1 °F 39.9 °F 29.50 in SW 8.0 mph 10.0 mph 92% 0.18 in
08:34 41.9 °F 39.7 °F 29.50 in SW 8.0 mph 14.0 mph 92% 0.18 in
08:39 41.7 °F 39.5 °F 29.50 in SW 6.0 mph 16.0 mph 92% 0.18 in
08:44 41.5 °F 39.3 °F 29.50 in SW 10.0 mph 19.0 mph 92% 0.19 in
08:49 41.5 °F 39.3 °F 29.50 in WSW 10.0 mph 16.0 mph 92% 0.18 in
08:54 41.3 °F 39.2 °F 29.50 in SW 9.0 mph 16.0 mph 92% 0.19 in
08:59 41.2 °F 39.1 °F 29.50 in SW 9.0 mph 17.0 mph 92% 0.16 in
09:04 41.1 °F 39.0 °F 29.51 in SW 9.0 mph 18.0 mph 92% 0.14 in
09:09 41.0 °F 38.9 °F 29.51 in SW 9.0 mph 18.0 mph 92% 0.12 in
09:14 40.8 °F 38.7 °F 29.51 in SW 9.0 mph 19.0 mph 92% 0.11 in
09:19 40.6 °F 38.2 °F 29.51 in SW 10.0 mph 20.0 mph 91% 0.10 in
09:24 40.4 °F 38.0 °F 29.51 in SW 12.0 mph 19.0 mph 91% 0.10 in
09:29 40.3 °F 37.9 °F 29.51 in SW 11.0 mph 16.0 mph 91% 0.10 in
09:34 40.2 °F 37.8 °F 29.51 in SSW 6.0 mph 15.0 mph 91% 0.10 in
09:39 40.1 °F 37.7 °F 29.51 in South 6.0 mph 16.0 mph 91% 0.09 in
09:44 40.1 °F 37.7 °F 29.51 in SSE 8.0 mph 13.0 mph 91% 0.08 in
09:49 40.1 °F 37.4 °F 29.51 in West 6.0 mph 14.0 mph 90% 0.08 in
09:54 40.0 °F 37.3 °F 29.51 in SSW 7.0 mph 13.0 mph 90% 0.06 in
09:59 39.9 °F 37.2 °F 29.52 in SW 7.0 mph 15.0 mph 90% 0.07 in
10:04 39.8 °F 37.1 °F 29.52 in SW 7.0 mph 15.0 mph 90% 0.06 in
10:09 39.8 °F 37.1 °F 29.53 in SW 8.0 mph 19.0 mph 90% 0.07 in
10:14 39.7 °F 37.0 °F 29.52 in SW 8.0 mph 19.0 mph 90% 0.07 in
10:19 39.6 °F 36.9 °F 29.53 in SW 8.0 mph 18.0 mph 90% 0.08 in
10:24 39.6 °F 36.9 °F 29.53 in SW 7.0 mph 16.0 mph 90% 0.09 in
10:29 39.5 °F 36.8 °F 29.53 in SSW 6.0 mph 17.0 mph 90% 0.10 in
10:34 39.4 °F 36.7 °F 29.53 in SW 8.0 mph 21.0 mph 90% 0.11 in
10:39 39.4 °F 36.7 °F 29.53 in SW 8.0 mph 21.0 mph 90% 0.11 in
10:44 39.5 °F 36.8 °F 29.52 in SW 8.0 mph 16.0 mph 90% 0.11 in
10:49 39.6 °F 36.9 °F 29.52 in WSW 9.0 mph 15.0 mph 90% 0.10 in
10:54 39.8 °F 37.1 °F 29.53 in West 3.0 mph 12.0 mph 90% 0.10 in
10:59 39.9 °F 36.9 °F 29.52 in SW 5.0 mph 12.0 mph 89% 0.09 in
11:04 40.0 °F 37.0 °F 29.52 in WSW 5.0 mph 13.0 mph 89% 0.09 in
11:09 40.1 °F 36.8 °F 29.52 in WSW 7.0 mph 14.0 mph 88% 0.08 in
11:14 40.4 °F 37.1 °F 29.53 in SSW 8.0 mph 13.0 mph 88% 0.07 in
11:19 40.4 °F 36.8 °F 29.53 in West 3.0 mph 12.0 mph 87% 0.06 in
11:24 40.6 °F 37.0 °F 29.53 in SW 7.0 mph 14.0 mph 87% 0.04 in
11:29 40.4 °F 36.5 °F 29.53 in West 8.0 mph 14.0 mph 86% 0.02 in
11:34 40.1 °F 36.2 °F 29.53 in SW 8.0 mph 16.0 mph 86% 0.02 in
11:39 39.6 °F 35.8 °F 29.53 in WSW 8.0 mph 16.0 mph 86% 0.02 in
11:44 39.4 °F 35.9 °F 29.54 in SW 8.0 mph 13.0 mph 87% 0.02 in
11:49 39.2 °F 35.7 °F 29.53 in SW 7.0 mph 15.0 mph 87% 0.02 in
11:54 39.1 °F 35.6 °F 29.53 in SW 8.0 mph 15.0 mph 87% 0.02 in
11:59 39.5 °F 36.0 °F 29.53 in SW 7.0 mph 16.0 mph 87% 0.02 in
12:04 39.9 °F 36.3 °F 29.53 in SW 8.0 mph 16.0 mph 87% 0.02 in
12:09 40.0 °F 36.2 °F 29.53 in SW 9.0 mph 17.0 mph 86% 0.02 in
12:14 40.1 °F 36.0 °F 29.53 in West 6.0 mph 17.0 mph 85% 0.02 in
12:19 40.0 °F 35.9 °F 29.52 in WSW 10.0 mph 16.0 mph 85% 0.02 in
12:24 40.3 °F 35.8 °F 29.52 in SW 10.0 mph 22.0 mph 84% 0.02 in
12:29 40.6 °F 36.1 °F 29.52 in SW 12.0 mph 20.0 mph 84% 0.02 in
12:34 41.3 °F 36.8 °F 29.52 in WSW 10.0 mph 20.0 mph 84% 0.01 in
12:39 41.6 °F 37.1 °F 29.52 in WSW 9.0 mph 20.0 mph 84% 0.00 in
12:44 41.5 °F 36.1 °F 29.52 in WSW 10.0 mph 25.0 mph 81% 0.00 in
12:49 41.4 °F 36.0 °F 29.52 in West 8.0 mph 23.0 mph 81% 0.00 in
12:54 41.2 °F 35.2 °F 29.52 in West 12.0 mph 23.0 mph 79% 0.00 in
12:59 40.9 °F 34.9 °F 29.52 in WSW 15.0 mph 31.0 mph 79% 0.00 in
13:04 40.7 °F 34.7 °F 29.52 in WSW 15.0 mph 31.0 mph 79% 0.00 in
13:09 40.8 °F 34.8 °F 29.53 in WSW 14.0 mph 26.0 mph 79% 0.00 in
13:14 41.2 °F 34.5 °F 29.53 in WSW 13.0 mph 23.0 mph 77% 0.00 in
13:19 41.8 °F 35.4 °F 29.53 in SW 18.0 mph 21.0 mph 78% 0.00 in
13:24 42.0 °F 34.6 °F 29.52 in WSW 12.0 mph 23.0 mph 75% 0.00 in
13:29 42.5 °F 34.5 °F 29.52 in WSW 7.0 mph 22.0 mph 73% 0.00 in
13:34 42.7 °F 33.2 °F 29.52 in WSW 12.0 mph 27.0 mph 69% 0.00 in
13:39 43.0 °F 34.2 °F 29.53 in WSW 12.0 mph 27.0 mph 71% 0.00 in
13:44 42.6 °F 34.2 °F 29.53 in WSW 12.0 mph 26.0 mph 72% 0.00 in
13:49 42.3 °F 33.9 °F 29.54 in SSW 11.0 mph 23.0 mph 72% 0.00 in
13:54 42.6 °F 34.5 °F 29.54 in SSW 21.0 mph 23.0 mph 73% 0.00 in
13:59 41.7 °F 33.7 °F 29.55 in SSW 5.0 mph 26.0 mph 73% 0.00 in
14:04 41.7 °F 34.4 °F 29.55 in WSW 13.0 mph 26.0 mph 75% 0.00 in
14:09 41.6 °F 33.6 °F 29.55 in WSW 12.0 mph 23.0 mph 73% 0.00 in
14:14 40.8 °F 33.2 °F 29.55 in WSW 12.0 mph 23.0 mph 74% 0.00 in
14:19 40.3 °F 32.7 °F 29.55 in WSW 13.0 mph 24.0 mph 74% 0.00 in
14:24 40.0 °F 32.7 °F 29.55 in West 17.0 mph 22.0 mph 75% 0.00 in
14:29 39.8 °F 32.5 °F 29.55 in SW 9.0 mph 19.0 mph 75% 0.00 in
14:34 39.7 °F 32.4 °F 29.55 in WSW 11.0 mph 19.0 mph 75% 0.00 in
14:39 39.6 °F 32.7 °F 29.55 in WSW 12.0 mph 24.0 mph 76% 0.00 in
14:44 39.5 °F 32.6 °F 29.55 in West 13.0 mph 29.0 mph 76% 0.00 in
14:49 39.4 °F 32.5 °F 29.55 in WSW 14.0 mph 19.0 mph 76% 0.00 in
14:54 39.3 °F 32.7 °F 29.55 in SW 10.0 mph 22.0 mph 77% 0.00 in
14:59 39.0 °F 32.7 °F 29.55 in SSE 17.0 mph 22.0 mph 78% 0.00 in
15:04 38.8 °F 32.5 °F 29.56 in WSW 13.0 mph 31.0 mph 78% 0.00 in
15:09 38.7 °F 32.7 °F 29.56 in SW 13.0 mph 31.0 mph 79% 0.00 in
15:14 38.5 °F 32.9 °F 29.55 in SW 13.0 mph 27.0 mph 80% 0.00 in
15:19 38.2 °F 32.6 °F 29.56 in WSW 13.0 mph 26.0 mph 80% 0.00 in
15:24 38.1 °F 32.8 °F 29.56 in SW 12.0 mph 22.0 mph 81% 0.00 in
15:29 38.2 °F 32.9 °F 29.56 in WSW 15.0 mph 20.0 mph 81% 0.00 in
15:34 38.1 °F 32.8 °F 29.56 in WSW 14.0 mph 23.0 mph 81% 0.00 in
15:39 38.0 °F 32.7 °F 29.56 in WSW 12.0 mph 23.0 mph 81% 0.00 in
15:44 37.8 °F 32.8 °F 29.58 in WSW 12.0 mph 22.0 mph 82% 0.00 in
15:49 37.6 °F 32.3 °F 29.57 in South 10.0 mph 23.0 mph 81% 0.00 in
15:54 37.8 °F 32.5 °F 29.58 in WSW 10.0 mph 20.0 mph 81% 0.00 in
15:59 37.8 °F 32.2 °F 29.58 in SW 12.0 mph 21.0 mph 80% 0.00 in
16:04 37.7 °F 31.8 °F 29.59 in SW 12.0 mph 21.0 mph 79% 0.00 in
16:09 37.6 °F 31.7 °F 29.60 in SW 12.0 mph 21.0 mph 79% 0.00 in
16:14 37.4 °F 31.2 °F 29.59 in WSW 13.0 mph 27.0 mph 78% 0.00 in
16:19 37.4 °F 31.5 °F 29.58 in WSW 13.0 mph 24.0 mph 79% 0.00 in
16:24 37.3 °F 31.4 °F 29.58 in SW 10.0 mph 23.0 mph 79% 0.00 in
16:29 37.2 °F 31.3 °F 29.58 in West 13.0 mph 22.0 mph 79% 0.00 in
16:34 37.2 °F 31.0 °F 29.59 in WSW 19.0 mph 26.0 mph 78% 0.00 in
16:39 37.0 °F 30.8 °F 29.59 in WSW 13.0 mph 26.0 mph 78% 0.00 in
16:44 36.7 °F 30.8 °F 29.59 in WSW 14.0 mph 26.0 mph 79% 0.00 in
16:49 36.5 °F 30.6 °F 29.60 in WSW 12.0 mph 21.0 mph 79% 0.00 in
16:54 36.3 °F 30.4 °F 29.60 in West 12.0 mph 21.0 mph 79% 0.00 in
16:59 36.2 °F 30.0 °F 29.60 in SW 16.0 mph 26.0 mph 78% 0.00 in
17:04 36.1 °F 29.6 °F 29.60 in SW 10.0 mph 25.0 mph 77% 0.00 in
17:09 36.0 °F 29.5 °F 29.60 in West 18.0 mph 31.0 mph 77% 0.00 in
17:14 36.0 °F 29.8 °F 29.61 in WSW 15.0 mph 31.0 mph 78% 0.00 in
17:19 35.9 °F 29.4 °F 29.61 in WSW 14.0 mph 27.0 mph 77% 0.00 in
17:24 35.9 °F 29.4 °F 29.61 in SW 13.0 mph 32.0 mph 77% 0.00 in
17:29 35.8 °F 29.3 °F 29.62 in SW 15.0 mph 22.0 mph 77% 0.00 in
17:34 35.8 °F 29.6 °F 29.61 in WNW 10.0 mph 22.0 mph 78% 0.00 in
17:39 35.7 °F 29.2 °F 29.62 in WSW 10.0 mph 22.0 mph 77% 0.00 in
17:44 35.7 °F 29.2 °F 29.62 in WSW 12.0 mph 22.0 mph 77% 0.00 in
17:49 35.7 °F 29.2 °F 29.62 in WSW 13.0 mph 28.0 mph 77% 0.00 in
17:54 35.6 °F 28.8 °F 29.63 in WSW 14.0 mph 28.0 mph 76% 0.00 in
17:59 35.6 °F 28.8 °F 29.63 in WSW 13.0 mph 26.0 mph 76% 0.00 in
18:04 35.5 °F 28.7 °F 29.63 in WSW 13.0 mph 25.0 mph 76% 0.00 in
18:09 35.5 °F 28.7 °F 29.64 in SW 13.0 mph 24.0 mph 76% 0.00 in
18:14 35.4 °F 27.9 °F 29.64 in WSW 12.0 mph 24.0 mph 74% 0.00 in
18:19 35.5 °F 27.7 °F 29.64 in SW 19.0 mph 25.0 mph 73% 0.00 in
18:24 35.5 °F 27.4 °F 29.65 in SW 6.0 mph 25.0 mph 72% 0.00 in
18:29 35.4 °F 26.9 °F 29.65 in WSW 10.0 mph 25.0 mph 71% 0.00 in
18:34 35.3 °F 27.2 °F 29.66 in West 8.0 mph 25.0 mph 72% 0.00 in
18:39 35.2 °F 27.1 °F 29.66 in WSW 12.0 mph 29.0 mph 72% 0.00 in
18:44 35.1 °F 27.0 °F 29.66 in SW 11.0 mph 23.0 mph 72% 0.00 in
18:49 35.1 °F 27.0 °F 29.67 in WSW 12.0 mph 23.0 mph 72% 0.00 in
18:54 35.0 °F 26.9 °F 29.67 in WSW 12.0 mph 25.0 mph 72% 0.00 in
18:59 34.8 °F 26.0 °F 29.68 in WSW 12.0 mph 25.0 mph 70% 0.00 in
19:04 34.6 °F 25.8 °F 29.68 in WSW 13.0 mph 27.0 mph 70% 0.00 in
19:09 34.4 °F 26.6 °F 29.69 in WNW 12.0 mph 25.0 mph 73% 0.00 in
19:14 34.0 °F 25.9 °F 29.69 in SW 15.0 mph 28.0 mph 72% 0.00 in
19:19 33.7 °F 25.6 °F 29.70 in WSW 11.0 mph 28.0 mph 72% 0.00 in
19:24 33.6 °F 25.5 °F 29.70 in WSW 9.0 mph 22.0 mph 72% 0.00 in
19:29 33.6 °F 24.9 °F 29.70 in WSW 10.0 mph 26.0 mph 70% 0.00 in
19:34 33.7 °F 25.0 °F 29.71 in WSW 14.0 mph 26.0 mph 70% 0.00 in
19:39 33.7 °F 25.3 °F 29.72 in West 13.0 mph 25.0 mph 71% 0.00 in
19:44 33.6 °F 25.2 °F 29.72 in West 9.0 mph 24.0 mph 71% 0.00 in
19:49 33.6 °F 25.5 °F 29.72 in WSW 13.0 mph 24.0 mph 72% 0.00 in
19:54 33.5 °F 25.8 °F 29.72 in WSW 13.0 mph 30.0 mph 73% 0.00 in
19:59 33.4 °F 26.0 °F 29.73 in WSW 13.0 mph 30.0 mph 74% 0.00 in
20:04 33.3 °F 25.9 °F 29.73 in WSW 13.0 mph 26.0 mph 74% 0.00 in
20:09 32.9 °F 26.8 °F 29.75 in WSW 13.0 mph 26.0 mph 78% 0.00 in
20:14 31.2 °F 26.6 °F 29.75 in West 9.0 mph 23.0 mph 83% 0.00 in
20:19 30.5 °F 26.8 °F 29.76 in West 10.0 mph 23.0 mph 86% 0.00 in
20:24 30.3 °F 26.6 °F 29.76 in West 5.0 mph 14.0 mph 86% 0.00 in
20:29 30.5 °F 26.8 °F 29.76 in West 4.0 mph 13.0 mph 86% 0.00 in
20:34 30.6 °F 26.6 °F 29.76 in West 4.0 mph 13.0 mph 85% 0.00 in
20:39 30.9 °F 26.6 °F 29.77 in West 4.0 mph 14.0 mph 84% 0.00 in
20:44 31.1 °F 26.5 °F 29.77 in West 7.0 mph 13.0 mph 83% 0.00 in
20:49 30.9 °F 26.3 °F 29.77 in West 8.0 mph 19.0 mph 83% 0.00 in
20:54 30.6 °F 26.3 °F 29.78 in West 8.0 mph 19.0 mph 84% 0.00 in
20:59 30.1 °F 26.4 °F 29.78 in WSW 8.0 mph 18.0 mph 86% 0.00 in
21:04 29.6 °F 26.2 °F 29.78 in West 9.0 mph 18.0 mph 87% 0.00 in
21:09 29.5 °F 26.1 °F 29.78 in West 10.0 mph 14.0 mph 87% 0.00 in
21:14 29.6 °F 26.2 °F 29.79 in WNW 12.0 mph 18.0 mph 87% 0.00 in
21:19 29.6 °F 25.4 °F 29.78 in West 9.0 mph 18.0 mph 84% 0.00 in
21:24 29.8 °F 25.0 °F 29.79 in West 8.0 mph 16.0 mph 82% 0.00 in
21:29 29.9 °F 24.5 °F 29.79 in West 7.0 mph 13.0 mph 80% 0.00 in
21:34 30.1 °F 24.4 °F 29.79 in West 6.0 mph 12.0 mph 79% 0.00 in
21:39 30.2 °F 24.2 °F 29.80 in West 8.0 mph 15.0 mph 78% 0.00 in
21:44 30.4 °F 24.1 °F 29.80 in WSW 8.0 mph 18.0 mph 77% 0.00 in
21:49 30.4 °F 23.7 °F 29.80 in West 7.0 mph 18.0 mph 76% 0.00 in
21:54 30.4 °F 23.7 °F 29.80 in West 8.0 mph 18.0 mph 76% 0.00 in
21:59 30.4 °F 23.7 °F 29.81 in WNW 4.0 mph 15.0 mph 76% 0.00 in
22:04 30.4 °F 23.7 °F 29.80 in NW 11.0 mph 18.0 mph 76% 0.00 in
22:09 30.4 °F 23.7 °F 29.81 in WNW 9.0 mph 16.0 mph 76% 0.00 in
22:14 29.7 °F 23.7 °F 29.81 in WNW 12.0 mph 20.0 mph 78% 0.00 in
22:19 29.1 °F 23.7 °F 29.81 in WNW 9.0 mph 21.0 mph 80% 0.00 in
22:24 29.0 °F 23.6 °F 29.82 in West 8.0 mph 21.0 mph 80% 0.00 in
22:29 29.1 °F 23.4 °F 29.82 in West 7.0 mph 14.0 mph 79% 0.00 in
22:34 29.1 °F 23.4 °F 29.82 in WNW 5.0 mph 14.0 mph 79% 0.00 in
22:39 29.0 °F 23.3 °F 29.82 in WSW 3.0 mph 15.0 mph 79% 0.00 in
22:44 29.0 °F 23.3 °F 29.82 in West 4.0 mph 17.0 mph 79% 0.00 in
22:49 28.9 °F 23.5 °F 29.82 in West 8.0 mph 18.0 mph 80% 0.00 in
22:54 28.9 °F 23.2 °F 29.82 in West 9.0 mph 18.0 mph 79% 0.00 in
22:59 28.9 °F 22.9 °F 29.82 in West 9.0 mph 16.0 mph 78% 0.00 in
23:04 29.0 °F 23.0 °F 29.83 in West 9.0 mph 17.0 mph 78% 0.00 in
23:09 29.0 °F 22.7 °F 29.83 in West 18.0 mph 18.0 mph 77% 0.00 in
23:14 29.1 °F 22.5 °F 29.83 in West 8.0 mph 18.0 mph 76% 0.00 in
23:19 29.0 °F 21.7 °F 29.83 in West 8.0 mph 23.0 mph 74% 0.00 in
23:24 29.0 °F 21.7 °F 29.83 in West 10.0 mph 23.0 mph 74% 0.00 in
23:29 29.0 °F 21.7 °F 29.83 in West 10.0 mph 17.0 mph 74% 0.00 in
23:34 28.9 °F 21.7 °F 29.83 in West 22.0 mph 22.0 mph 74% 0.00 in
23:39 28.8 °F 21.2 °F 29.84 in West 7.0 mph 22.0 mph 73% 0.00 in
23:44 28.8 °F 21.2 °F 29.84 in West 7.0 mph 16.0 mph 73% 0.00 in
23:49 28.8 °F 20.9 °F 29.84 in West 8.0 mph 17.0 mph 72% 0.00 in
23:54 28.8 °F 21.2 °F 29.84 in West 8.0 mph 17.0 mph 73% 0.00 in
23:59 28.7 °F 21.8 °F 29.84 in WNW 5.0 mph 13.0 mph 75% 0.00 in
Buffalo, New York, USA
Compliments of Weather Underground - 2.5 mb